sensor_id;sensor_type;location;lat;lon;timestamp;temperature;humidity
13682;DHT22;6913;49.892;7.936;2023-04-06T00:00:14;0.90;99.90
13682;DHT22;6913;49.892;7.936;2023-04-06T00:02:42;0.60;99.90
13682;DHT22;6913;49.892;7.936;2023-04-06T00:05:09;0.70;99.90
13682;DHT22;6913;49.892;7.936;2023-04-06T00:07:36;0.80;99.90
13682;DHT22;6913;49.892;7.936;2023-04-06T00:10:04;0.90;99.60
13682;DHT22;6913;49.892;7.936;2023-04-06T00:12:33;0.50;99.90
13682;DHT22;6913;49.892;7.936;2023-04-06T00:15:00;0.60;99.90
13682;DHT22;6913;49.892;7.936;2023-04-06T00:17:27;0.80;99.90
13682;DHT22;6913;49.892;7.936;2023-04-06T00:19:54;0.70;99.90
13682;DHT22;6913;49.892;7.936;2023-04-06T00:22:21;0.80;99.90
13682;DHT22;6913;49.892;7.936;2023-04-06T00:24:48;0.80;99.90
13682;DHT22;6913;49.892;7.936;2023-04-06T00:27:15;0.70;99.90
13682;DHT22;6913;49.892;7.936;2023-04-06T00:29:44;0.40;99.90
13682;DHT22;6913;49.892;7.936;2023-04-06T00:32:11;0.70;99.90
13682;DHT22;6913;49.892;7.936;2023-04-06T00:34:38;0.80;99.90
13682;DHT22;6913;49.892;7.936;2023-04-06T00:37:05;0.70;99.90
13682;DHT22;6913;49.892;7.936;2023-04-06T00:39:32;0.60;99.90
13682;DHT22;6913;49.892;7.936;2023-04-06T00:41:59;0.70;99.90
13682;DHT22;6913;49.892;7.936;2023-04-06T00:44:26;0.30;99.90
13682;DHT22;6913;49.892;7.936;2023-04-06T00:46:55;0.60;99.90
13682;DHT22;6913;49.892;7.936;2023-04-06T00:49:22;0.50;99.90
13682;DHT22;6913;49.892;7.936;2023-04-06T00:51:49;0.50;99.90
13682;DHT22;6913;49.892;7.936;2023-04-06T00:54:16;0.20;99.90
13682;DHT22;6913;49.892;7.936;2023-04-06T00:56:43;0.50;99.90
13682;DHT22;6913;49.892;7.936;2023-04-06T00:59:10;0.60;99.90
13682;DHT22;6913;49.892;7.936;2023-04-06T01:01:37;0.10;99.90
13682;DHT22;6913;49.892;7.936;2023-04-06T01:04:06;0.30;99.90
13682;DHT22;6913;49.892;7.936;2023-04-06T01:06:33;0.00;99.90
13682;DHT22;6913;49.892;7.936;2023-04-06T01:09:00;0.20;99.90
13682;DHT22;6913;49.892;7.936;2023-04-06T01:11:27;-0.10;99.90
13682;DHT22;6913;49.892;7.936;2023-04-06T01:13:55;-0.10;99.90
13682;DHT22;6913;49.892;7.936;2023-04-06T01:16:23;0.00;99.90
13682;DHT22;6913;49.892;7.936;2023-04-06T01:18:50;-0.10;99.90
13682;DHT22;6913;49.892;7.936;2023-04-06T01:21:18;0.10;99.90
13682;DHT22;6913;49.892;7.936;2023-04-06T01:23:47;0.10;99.90
13682;DHT22;6913;49.892;7.936;2023-04-06T01:26:14;0.20;99.90
13682;DHT22;6913;49.892;7.936;2023-04-06T01:28:41;0.00;99.90
13682;DHT22;6913;49.892;7.936;2023-04-06T01:31:12;0.40;99.90
13682;DHT22;6913;49.892;7.936;2023-04-06T01:33:39;-0.20;99.90
13682;DHT22;6913;49.892;7.936;2023-04-06T01:36:06;-0.20;99.90
13682;DHT22;6913;49.892;7.936;2023-04-06T01:38:33;-0.30;99.90
13682;DHT22;6913;49.892;7.936;2023-04-06T01:41:02;-0.30;99.90
13682;DHT22;6913;49.892;7.936;2023-04-06T01:43:28;-0.40;99.90
13682;DHT22;6913;49.892;7.936;2023-04-06T01:45:56;-0.40;99.90
13682;DHT22;6913;49.892;7.936;2023-04-06T01:48:23;-0.40;99.90
13682;DHT22;6913;49.892;7.936;2023-04-06T01:50:50;-0.50;99.90
13682;DHT22;6913;49.892;7.936;2023-04-06T01:53:16;-0.50;99.90
13682;DHT22;6913;49.892;7.936;2023-04-06T01:55:43;-0.50;99.90
13682;DHT22;6913;49.892;7.936;2023-04-06T01:58:12;-0.50;99.90
13682;DHT22;6913;49.892;7.936;2023-04-06T02:00:39;-0.50;99.90
13682;DHT22;6913;49.892;7.936;2023-04-06T02:03:06;-0.90;99.90
13682;DHT22;6913;49.892;7.936;2023-04-06T02:05:34;-0.80;99.90
13682;DHT22;6913;49.892;7.936;2023-04-06T02:08:03;-0.80;99.90
13682;DHT22;6913;49.892;7.936;2023-04-06T02:10:30;-0.80;99.90
13682;DHT22;6913;49.892;7.936;2023-04-06T02:12:57;-0.70;99.90
13682;DHT22;6913;49.892;7.936;2023-04-06T02:15:26;-0.70;99.90
13682;DHT22;6913;49.892;7.936;2023-04-06T02:17:53;-0.80;99.90
13682;DHT22;6913;49.892;7.936;2023-04-06T02:20:20;-0.80;99.90
13682;DHT22;6913;49.892;7.936;2023-04-06T02:22:47;-0.80;99.90
13682;DHT22;6913;49.892;7.936;2023-04-06T02:25:14;-0.80;99.90
13682;DHT22;6913;49.892;7.936;2023-04-06T02:27:41;-0.80;99.90
13682;DHT22;6913;49.892;7.936;2023-04-06T02:30:09;-0.80;99.90
13682;DHT22;6913;49.892;7.936;2023-04-06T02:32:37;-0.80;99.90
13682;DHT22;6913;49.892;7.936;2023-04-06T02:35:05;-0.80;99.90
13682;DHT22;6913;49.892;7.936;2023-04-06T02:37:32;-0.90;99.90
13682;DHT22;6913;49.892;7.936;2023-04-06T02:39:59;-0.90;99.90
13682;DHT22;6913;49.892;7.936;2023-04-06T02:42:26;-1.00;99.90
13682;DHT22;6913;49.892;7.936;2023-04-06T02:44:52;-1.00;99.90
13682;DHT22;6913;49.892;7.936;2023-04-06T02:47:19;-1.00;99.90
13682;DHT22;6913;49.892;7.936;2023-04-06T02:49:48;-1.10;99.90
13682;DHT22;6913;49.892;7.936;2023-04-06T02:52:14;-1.10;99.90
13682;DHT22;6913;49.892;7.936;2023-04-06T02:54:43;-1.10;99.90
13682;DHT22;6913;49.892;7.936;2023-04-06T02:57:10;-1.20;99.90
13682;DHT22;6913;49.892;7.936;2023-04-06T02:59:37;-1.10;99.90
13682;DHT22;6913;49.892;7.936;2023-04-06T03:02:03;-1.10;99.90
13682;DHT22;6913;49.892;7.936;2023-04-06T03:04:30;0.20;99.90
13682;DHT22;6913;49.892;7.936;2023-04-06T03:06:59;-1.10;99.90
13682;DHT22;6913;49.892;7.936;2023-04-06T03:09:26;-1.10;99.90
13682;DHT22;6913;49.892;7.936;2023-04-06T03:11:53;-1.10;99.90
13682;DHT22;6913;49.892;7.936;2023-04-06T03:14:20;-1.10;99.90
13682;DHT22;6913;49.892;7.936;2023-04-06T03:16:48;-1.20;99.90
13682;DHT22;6913;49.892;7.936;2023-04-06T03:19:15;-1.30;99.90
13682;DHT22;6913;49.892;7.936;2023-04-06T03:21:42;-1.40;99.90
13682;DHT22;6913;49.892;7.936;2023-04-06T03:24:10;-1.40;99.90
13682;DHT22;6913;49.892;7.936;2023-04-06T03:26:38;-1.30;99.90
13682;DHT22;6913;49.892;7.936;2023-04-06T03:29:05;-1.30;99.90
13682;DHT22;6913;49.892;7.936;2023-04-06T03:31:32;-1.30;99.90
13682;DHT22;6913;49.892;7.936;2023-04-06T03:33:59;-1.30;99.90
13682;DHT22;6913;49.892;7.936;2023-04-06T03:36:25;-1.30;99.90
13682;DHT22;6913;49.892;7.936;2023-04-06T03:38:52;-1.30;99.90
13682;DHT22;6913;49.892;7.936;2023-04-06T03:41:21;-1.30;99.90
13682;DHT22;6913;49.892;7.936;2023-04-06T03:43:48;-0.90;99.90
13682;DHT22;6913;49.892;7.936;2023-04-06T03:46:15;-1.40;99.90
13682;DHT22;6913;49.892;7.936;2023-04-06T03:48:42;-1.40;99.90
13682;DHT22;6913;49.892;7.936;2023-04-06T03:51:09;-1.40;99.90
13682;DHT22;6913;49.892;7.936;2023-04-06T03:53:35;-1.20;99.90
13682;DHT22;6913;49.892;7.936;2023-04-06T03:56:04;-1.40;99.90
13682;DHT22;6913;49.892;7.936;2023-04-06T03:58:32;-1.50;99.90
13682;DHT22;6913;49.892;7.936;2023-04-06T04:00:59;-1.40;99.90
13682;DHT22;6913;49.892;7.936;2023-04-06T04:03:26;-1.60;99.90
13682;DHT22;6913;49.892;7.936;2023-04-06T04:05:53;-1.70;99.90
13682;DHT22;6913;49.892;7.936;2023-04-06T04:08:21;-1.70;99.90
13682;DHT22;6913;49.892;7.936;2023-04-06T04:10:47;-1.70;99.90
13682;DHT22;6913;49.892;7.936;2023-04-06T04:13:14;-1.60;99.90
13682;DHT22;6913;49.892;7.936;2023-04-06T04:15:43;-1.70;99.90
13682;DHT22;6913;49.892;7.936;2023-04-06T04:18:09;-1.90;99.90
13682;DHT22;6913;49.892;7.936;2023-04-06T04:20:36;-1.90;99.90
13682;DHT22;6913;49.892;7.936;2023-04-06T04:23:03;-1.80;99.90
13682;DHT22;6913;49.892;7.936;2023-04-06T04:25:30;-2.00;99.90
13682;DHT22;6913;49.892;7.936;2023-04-06T04:27:57;-2.10;99.90
13682;DHT22;6913;49.892;7.936;2023-04-06T04:30:24;-2.10;99.90
13682;DHT22;6913;49.892;7.936;2023-04-06T04:32:52;-2.00;99.90
13682;DHT22;6913;49.892;7.936;2023-04-06T04:35:19;-1.90;99.90
13682;DHT22;6913;49.892;7.936;2023-04-06T04:37:46;-1.90;99.90
13682;DHT22;6913;49.892;7.936;2023-04-06T04:40:13;-1.90;99.90
13682;DHT22;6913;49.892;7.936;2023-04-06T04:42:40;-1.80;99.90
13682;DHT22;6913;49.892;7.936;2023-04-06T04:45:07;-1.80;99.90
13682;DHT22;6913;49.892;7.936;2023-04-06T04:47:34;-1.80;99.90
13682;DHT22;6913;49.892;7.936;2023-04-06T04:50:03;-1.90;99.90
13682;DHT22;6913;49.892;7.936;2023-04-06T04:52:30;-1.90;99.90
13682;DHT22;6913;49.892;7.936;2023-04-06T04:54:57;-1.90;99.90
13682;DHT22;6913;49.892;7.936;2023-04-06T04:57:24;-1.30;99.90
13682;DHT22;6913;49.892;7.936;2023-04-06T04:59:50;-1.90;99.90
13682;DHT22;6913;49.892;7.936;2023-04-06T05:02:17;-1.80;99.90
13682;DHT22;6913;49.892;7.936;2023-04-06T05:04:45;-1.80;99.90
13682;DHT22;6913;49.892;7.936;2023-04-06T05:07:13;-1.80;99.90
13682;DHT22;6913;49.892;7.936;2023-04-06T05:09:41;-1.80;99.90
13682;DHT22;6913;49.892;7.936;2023-04-06T05:12:08;-1.80;99.90
13682;DHT22;6913;49.892;7.936;2023-04-06T05:14:35;-1.70;99.90
13682;DHT22;6913;49.892;7.936;2023-04-06T05:17:02;-1.70;99.90
13682;DHT22;6913;49.892;7.936;2023-04-06T05:19:29;-1.70;99.90
13682;DHT22;6913;49.892;7.936;2023-04-06T05:21:57;-1.60;99.90
13682;DHT22;6913;49.892;7.936;2023-04-06T05:24:25;-1.60;99.90
13682;DHT22;6913;49.892;7.936;2023-04-06T05:26:52;-1.60;99.90
13682;DHT22;6913;49.892;7.936;2023-04-06T05:29:19;-1.50;99.90
13682;DHT22;6913;49.892;7.936;2023-04-06T05:31:46;-1.40;99.90
13682;DHT22;6913;49.892;7.936;2023-04-06T05:34:13;-1.00;99.90
13682;DHT22;6913;49.892;7.936;2023-04-06T05:36:40;-1.30;99.90
13682;DHT22;6913;49.892;7.936;2023-04-06T05:39:07;-1.20;99.90
13682;DHT22;6913;49.892;7.936;2023-04-06T05:41:35;-1.10;99.90
13682;DHT22;6913;49.892;7.936;2023-04-06T05:44:02;-1.00;99.90
13682;DHT22;6913;49.892;7.936;2023-04-06T05:46:29;-0.90;99.90
13682;DHT22;6913;49.892;7.936;2023-04-06T05:48:56;-0.80;99.90
13682;DHT22;6913;49.892;7.936;2023-04-06T05:51:23;-0.70;99.90
13682;DHT22;6913;49.892;7.936;2023-04-06T05:53:50;-0.50;99.90
13682;DHT22;6913;49.892;7.936;2023-04-06T05:56:17;-0.20;99.90
13682;DHT22;6913;49.892;7.936;2023-04-06T05:58:45;0.20;99.90
13682;DHT22;6913;49.892;7.936;2023-04-06T06:01:12;0.50;99.90
13682;DHT22;6913;49.892;7.936;2023-04-06T06:03:39;0.90;99.90
13682;DHT22;6913;49.892;7.936;2023-04-06T06:06:06;1.30;95.50
13682;DHT22;6913;49.892;7.936;2023-04-06T06:08:33;1.60;63.30
13682;DHT22;6913;49.892;7.936;2023-04-06T06:11:02;1.80;92.50
13682;DHT22;6913;49.892;7.936;2023-04-06T06:13:28;2.20;58.00
13682;DHT22;6913;49.892;7.936;2023-04-06T06:15:57;2.90;19.60
13682;DHT22;6913;49.892;7.936;2023-04-06T06:18:24;2.90;3.20
13682;DHT22;6913;49.892;7.936;2023-04-06T06:20:50;3.10;52.70
13682;DHT22;6913;49.892;7.936;2023-04-06T06:23:17;2.70;61.50
13682;DHT22;6913;49.892;7.936;2023-04-06T06:25:44;3.10;42.20
13682;DHT22;6913;49.892;7.936;2023-04-06T06:28:13;3.20;27.40
13682;DHT22;6913;49.892;7.936;2023-04-06T06:30:40;2.60;29.70
13682;DHT22;6913;49.892;7.936;2023-04-06T06:33:08;2.60;42.10
13682;DHT22;6913;49.892;7.936;2023-04-06T06:35:35;2.80;1.00
13682;DHT22;6913;49.892;7.936;2023-04-06T06:38:02;2.70;48.40
13682;DHT22;6913;49.892;7.936;2023-04-06T06:40:29;3.80;21.90
13682;DHT22;6913;49.892;7.936;2023-04-06T06:42:56;4.10;47.60
13682;DHT22;6913;49.892;7.936;2023-04-06T06:45:23;4.70;6.60
13682;DHT22;6913;49.892;7.936;2023-04-06T06:47:51;5.40;1.00
13682;DHT22;6913;49.892;7.936;2023-04-06T06:50:19;5.30;1.00
13682;DHT22;6913;49.892;7.936;2023-04-06T06:52:46;4.40;1.00
13682;DHT22;6913;49.892;7.936;2023-04-06T06:55:13;5.00;1.00
13682;DHT22;6913;49.892;7.936;2023-04-06T06:57:40;4.90;1.00
13682;DHT22;6913;49.892;7.936;2023-04-06T07:00:09;3.80;1.00
13682;DHT22;6913;49.892;7.936;2023-04-06T07:02:38;3.60;23.00
13682;DHT22;6913;49.892;7.936;2023-04-06T07:05:06;3.50;25.30
13682;DHT22;6913;49.892;7.936;2023-04-06T07:07:34;4.10;14.10
13682;DHT22;6913;49.892;7.936;2023-04-06T07:10:01;3.40;4.90
13682;DHT22;6913;49.892;7.936;2023-04-06T07:12:28;4.30;23.80
13682;DHT22;6913;49.892;7.936;2023-04-06T07:14:55;5.90;1.00
13682;DHT22;6913;49.892;7.936;2023-04-06T07:17:22;5.80;1.00
13682;DHT22;6913;49.892;7.936;2023-04-06T07:19:49;7.10;1.00
13682;DHT22;6913;49.892;7.936;2023-04-06T07:22:16;6.80;1.00
13682;DHT22;6913;49.892;7.936;2023-04-06T07:24:44;7.00;1.00
13682;DHT22;6913;49.892;7.936;2023-04-06T07:27:11;6.20;99.90
13682;DHT22;6913;49.892;7.936;2023-04-06T07:29:38;6.50;1.00
13682;DHT22;6913;49.892;7.936;2023-04-06T07:32:05;6.90;1.00
13682;DHT22;6913;49.892;7.936;2023-04-06T07:34:32;8.10;1.00
13682;DHT22;6913;49.892;7.936;2023-04-06T07:36:59;8.40;1.00
13682;DHT22;6913;49.892;7.936;2023-04-06T07:39:26;8.20;1.00
13682;DHT22;6913;49.892;7.936;2023-04-06T07:41:55;8.70;1.00
13682;DHT22;6913;49.892;7.936;2023-04-06T07:44:22;9.00;1.00
13682;DHT22;6913;49.892;7.936;2023-04-06T07:46:48;9.60;1.00
13682;DHT22;6913;49.892;7.936;2023-04-06T07:49:15;10.10;1.00
13682;DHT22;6913;49.892;7.936;2023-04-06T07:51:42;10.50;1.00
13682;DHT22;6913;49.892;7.936;2023-04-06T07:54:09;11.00;1.00
13682;DHT22;6913;49.892;7.936;2023-04-06T07:56:36;10.00;99.90
13682;DHT22;6913;49.892;7.936;2023-04-06T07:59:04;9.40;99.90
13682;DHT22;6913;49.892;7.936;2023-04-06T08:01:31;9.20;1.00
13682;DHT22;6913;49.892;7.936;2023-04-06T08:03:58;9.40;1.00
13682;DHT22;6913;49.892;7.936;2023-04-06T08:06:27;9.10;1.00
13682;DHT22;6913;49.892;7.936;2023-04-06T08:08:54;9.60;1.00
13682;DHT22;6913;49.892;7.936;2023-04-06T08:11:21;9.90;99.90
13682;DHT22;6913;49.892;7.936;2023-04-06T08:13:48;10.30;1.00
13682;DHT22;6913;49.892;7.936;2023-04-06T08:16:16;11.50;99.90
13682;DHT22;6913;49.892;7.936;2023-04-06T08:18:43;11.00;99.90
13682;DHT22;6913;49.892;7.936;2023-04-06T08:21:10;11.40;1.00
13682;DHT22;6913;49.892;7.936;2023-04-06T08:23:37;12.30;1.00
13682;DHT22;6913;49.892;7.936;2023-04-06T08:26:04;12.90;99.90
13682;DHT22;6913;49.892;7.936;2023-04-06T08:28:31;11.00;81.70
13682;DHT22;6913;49.892;7.936;2023-04-06T08:31:03;10.20;99.90
13682;DHT22;6913;49.892;7.936;2023-04-06T08:33:31;10.10;1.00
13682;DHT22;6913;49.892;7.936;2023-04-06T08:36:07;11.10;99.90
13682;DHT22;6913;49.892;7.936;2023-04-06T08:38:34;12.30;1.00
13682;DHT22;6913;49.892;7.936;2023-04-06T08:41:07;11.70;1.00
13682;DHT22;6913;49.892;7.936;2023-04-06T08:43:39;12.10;99.90
13682;DHT22;6913;49.892;7.936;2023-04-06T08:46:08;12.30;1.00
13682;DHT22;6913;49.892;7.936;2023-04-06T08:48:38;12.70;1.00
13682;DHT22;6913;49.892;7.936;2023-04-06T08:51:05;12.00;1.00
13682;DHT22;6913;49.892;7.936;2023-04-06T08:53:32;12.00;1.00
13682;DHT22;6913;49.892;7.936;2023-04-06T08:55:59;12.40;1.00
13682;DHT22;6913;49.892;7.936;2023-04-06T08:58:28;13.20;72.30
13682;DHT22;6913;49.892;7.936;2023-04-06T09:00:59;12.80;1.00
13682;DHT22;6913;49.892;7.936;2023-04-06T09:03:26;11.30;1.00
13682;DHT22;6913;49.892;7.936;2023-04-06T09:05:56;11.60;1.00
13682;DHT22;6913;49.892;7.936;2023-04-06T09:08:23;12.50;1.00
13682;DHT22;6913;49.892;7.936;2023-04-06T09:10:50;12.70;1.00
13682;DHT22;6913;49.892;7.936;2023-04-06T09:13:17;12.80;99.90
13682;DHT22;6913;49.892;7.936;2023-04-06T09:15:44;12.70;1.00
13682;DHT22;6913;49.892;7.936;2023-04-06T09:18:11;10.90;1.00
13682;DHT22;6913;49.892;7.936;2023-04-06T09:20:38;10.50;1.00
13682;DHT22;6913;49.892;7.936;2023-04-06T09:23:06;10.90;99.90
13682;DHT22;6913;49.892;7.936;2023-04-06T09:25:43;12.00;1.00
13682;DHT22;6913;49.892;7.936;2023-04-06T09:28:10;13.20;1.00
13682;DHT22;6913;49.892;7.936;2023-04-06T09:30:47;13.60;1.00
13682;DHT22;6913;49.892;7.936;2023-04-06T09:33:22;14.50;1.00
13682;DHT22;6913;49.892;7.936;2023-04-06T09:35:49;15.00;1.00
13682;DHT22;6913;49.892;7.936;2023-04-06T09:38:18;13.30;1.00
13682;DHT22;6913;49.892;7.936;2023-04-06T09:40:49;11.70;1.00
13682;DHT22;6913;49.892;7.936;2023-04-06T09:43:23;11.60;99.90
13682;DHT22;6913;49.892;7.936;2023-04-06T09:45:51;13.00;8.70
13682;DHT22;6913;49.892;7.936;2023-04-06T09:48:20;13.40;99.90
13682;DHT22;6913;49.892;7.936;2023-04-06T09:50:49;12.90;1.00
13682;DHT22;6913;49.892;7.936;2023-04-06T09:53:18;13.70;1.00
13682;DHT22;6913;49.892;7.936;2023-04-06T09:55:46;13.30;1.00
13682;DHT22;6913;49.892;7.936;2023-04-06T09:58:16;13.20;99.90
13682;DHT22;6913;49.892;7.936;2023-04-06T10:00:48;13.70;1.00
13682;DHT22;6913;49.892;7.936;2023-04-06T10:03:22;13.80;99.90
13682;DHT22;6913;49.892;7.936;2023-04-06T10:05:55;13.00;1.00
13682;DHT22;6913;49.892;7.936;2023-04-06T10:08:27;11.70;1.00
13682;DHT22;6913;49.892;7.936;2023-04-06T10:10:55;11.90;99.90
13682;DHT22;6913;49.892;7.936;2023-04-06T10:13:24;12.40;1.00
13682;DHT22;6913;49.892;7.936;2023-04-06T10:15:51;13.00;99.90
13682;DHT22;6913;49.892;7.936;2023-04-06T10:18:18;13.80;99.90
13682;DHT22;6913;49.892;7.936;2023-04-06T10:20:49;14.50;1.00
13682;DHT22;6913;49.892;7.936;2023-04-06T10:23:22;15.10;99.90
13682;DHT22;6913;49.892;7.936;2023-04-06T10:25:55;14.30;99.90
13682;DHT22;6913;49.892;7.936;2023-04-06T10:28:23;13.90;99.90
13682;DHT22;6913;49.892;7.936;2023-04-06T10:30:57;13.80;1.00
13682;DHT22;6913;49.892;7.936;2023-04-06T10:33:25;14.10;1.00
13682;DHT22;6913;49.892;7.936;2023-04-06T10:35:52;14.60;1.00
13682;DHT22;6913;49.892;7.936;2023-04-06T10:38:19;14.90;1.00
13682;DHT22;6913;49.892;7.936;2023-04-06T10:40:47;14.50;1.00
13682;DHT22;6913;49.892;7.936;2023-04-06T10:43:19;12.60;1.00
13682;DHT22;6913;49.892;7.936;2023-04-06T10:45:54;13.30;1.00
13682;DHT22;6913;49.892;7.936;2023-04-06T10:48:22;13.60;99.90
13682;DHT22;6913;49.892;7.936;2023-04-06T10:50:50;14.00;1.00
13682;DHT22;6913;49.892;7.936;2023-04-06T10:53:21;14.10;1.00
13682;DHT22;6913;49.892;7.936;2023-04-06T10:55:50;14.20;1.00
13682;DHT22;6913;49.892;7.936;2023-04-06T10:58:18;14.10;1.00
13682;DHT22;6913;49.892;7.936;2023-04-06T11:00:46;14.30;1.00
13682;DHT22;6913;49.892;7.936;2023-04-06T11:03:13;14.00;69.10
13682;DHT22;6913;49.892;7.936;2023-04-06T11:05:43;13.50;1.00
13682;DHT22;6913;49.892;7.936;2023-04-06T11:08:10;14.50;1.00
13682;DHT22;6913;49.892;7.936;2023-04-06T11:10:48;15.30;1.00
13682;DHT22;6913;49.892;7.936;2023-04-06T11:13:15;15.50;99.90
13682;DHT22;6913;49.892;7.936;2023-04-06T11:15:44;15.80;99.90
13682;DHT22;6913;49.892;7.936;2023-04-06T11:18:11;15.40;99.90
13682;DHT22;6913;49.892;7.936;2023-04-06T11:20:37;14.90;99.90
13682;DHT22;6913;49.892;7.936;2023-04-06T11:23:04;15.20;99.90
13682;DHT22;6913;49.892;7.936;2023-04-06T11:25:32;15.20;99.90
13682;DHT22;6913;49.892;7.936;2023-04-06T11:27:58;14.40;99.90
13682;DHT22;6913;49.892;7.936;2023-04-06T11:30:25;14.60;99.90
13682;DHT22;6913;49.892;7.936;2023-04-06T11:33:00;15.70;99.90
13682;DHT22;6913;49.892;7.936;2023-04-06T11:35:31;16.30;99.90
13682;DHT22;6913;49.892;7.936;2023-04-06T11:38:03;16.30;99.90
13682;DHT22;6913;49.892;7.936;2023-04-06T11:40:30;17.00;99.90
13682;DHT22;6913;49.892;7.936;2023-04-06T11:42:58;17.20;99.90
13682;DHT22;6913;49.892;7.936;2023-04-06T11:45:25;17.70;99.90
13682;DHT22;6913;49.892;7.936;2023-04-06T11:47:58;17.90;75.70
13682;DHT22;6913;49.892;7.936;2023-04-06T11:50:25;17.90;13.50
13682;DHT22;6913;49.892;7.936;2023-04-06T11:52:59;16.60;1.00
13682;DHT22;6913;49.892;7.936;2023-04-06T11:55:26;16.30;11.60
13682;DHT22;6913;49.892;7.936;2023-04-06T11:57:53;16.90;45.10
13682;DHT22;6913;49.892;7.936;2023-04-06T12:00:21;17.30;59.00
13682;DHT22;6913;49.892;7.936;2023-04-06T12:02:48;17.70;96.90
13682;DHT22;6913;49.892;7.936;2023-04-06T12:05:17;17.60;14.30
13682;DHT22;6913;49.892;7.936;2023-04-06T12:07:44;17.30;1.00
13682;DHT22;6913;49.892;7.936;2023-04-06T12:10:11;16.70;1.00
13682;DHT22;6913;49.892;7.936;2023-04-06T12:12:38;16.50;1.00
13682;DHT22;6913;49.892;7.936;2023-04-06T12:15:09;16.30;1.00
13682;DHT22;6913;49.892;7.936;2023-04-06T12:17:36;16.10;1.00
13682;DHT22;6913;49.892;7.936;2023-04-06T12:20:03;16.00;1.00
13682;DHT22;6913;49.892;7.936;2023-04-06T12:22:32;16.00;1.00
13682;DHT22;6913;49.892;7.936;2023-04-06T12:24:59;15.80;1.00
13682;DHT22;6913;49.892;7.936;2023-04-06T12:27:26;15.90;1.00
13682;DHT22;6913;49.892;7.936;2023-04-06T12:29:53;16.00;14.80
13682;DHT22;6913;49.892;7.936;2023-04-06T12:32:21;16.10;10.60
13682;DHT22;6913;49.892;7.936;2023-04-06T12:34:48;16.30;13.30
13682;DHT22;6913;49.892;7.936;2023-04-06T12:37:15;16.40;7.40
13682;DHT22;6913;49.892;7.936;2023-04-06T12:39:43;16.80;40.30
13682;DHT22;6913;49.892;7.936;2023-04-06T12:42:10;16.50;1.00
13682;DHT22;6913;49.892;7.936;2023-04-06T12:44:38;16.50;1.00
13682;DHT22;6913;49.892;7.936;2023-04-06T12:47:05;16.30;1.00
13682;DHT22;6913;49.892;7.936;2023-04-06T12:49:32;16.20;1.00
13682;DHT22;6913;49.892;7.936;2023-04-06T12:52:00;16.20;9.10
13682;DHT22;6913;49.892;7.936;2023-04-06T12:54:27;16.60;3.90
13682;DHT22;6913;49.892;7.936;2023-04-06T12:56:55;16.60;22.40
13682;DHT22;6913;49.892;7.936;2023-04-06T12:59:23;16.60;13.80
13682;DHT22;6913;49.892;7.936;2023-04-06T13:01:50;16.60;1.00
13682;DHT22;6913;49.892;7.936;2023-04-06T13:04:18;16.50;2.50
13682;DHT22;6913;49.892;7.936;2023-04-06T13:06:47;16.50;17.20
13682;DHT22;6913;49.892;7.936;2023-04-06T13:09:15;16.50;1.00
13682;DHT22;6913;49.892;7.936;2023-04-06T13:11:43;16.40;4.80
13682;DHT22;6913;49.892;7.936;2023-04-06T13:14:16;16.30;1.00
13682;DHT22;6913;49.892;7.936;2023-04-06T13:16:45;15.90;1.00
13682;DHT22;6913;49.892;7.936;2023-04-06T13:19:16;15.60;1.00
13682;DHT22;6913;49.892;7.936;2023-04-06T13:21:44;15.90;31.60
13682;DHT22;6913;49.892;7.936;2023-04-06T13:24:11;15.90;5.90
13682;DHT22;6913;49.892;7.936;2023-04-06T13:26:39;16.00;32.20
13682;DHT22;6913;49.892;7.936;2023-04-06T13:29:07;16.00;25.00
13682;DHT22;6913;49.892;7.936;2023-04-06T13:31:38;15.90;7.20
13682;DHT22;6913;49.892;7.936;2023-04-06T13:34:07;15.70;14.30
13682;DHT22;6913;49.892;7.936;2023-04-06T13:36:35;15.90;29.20
13682;DHT22;6913;49.892;7.936;2023-04-06T13:39:04;15.90;46.10
13682;DHT22;6913;49.892;7.936;2023-04-06T13:41:32;16.00;14.40
13682;DHT22;6913;49.892;7.936;2023-04-06T13:43:59;15.80;1.00
13682;DHT22;6913;49.892;7.936;2023-04-06T13:46:26;15.80;9.40
13682;DHT22;6913;49.892;7.936;2023-04-06T13:48:54;16.10;1.00
13682;DHT22;6913;49.892;7.936;2023-04-06T13:51:21;15.60;1.00
13682;DHT22;6913;49.892;7.936;2023-04-06T13:53:48;15.60;1.00
13682;DHT22;6913;49.892;7.936;2023-04-06T13:56:18;15.80;46.10
13682;DHT22;6913;49.892;7.936;2023-04-06T13:58:45;15.70;26.10
13682;DHT22;6913;49.892;7.936;2023-04-06T14:01:11;15.60;21.90
13682;DHT22;6913;49.892;7.936;2023-04-06T14:03:38;15.50;56.50
13682;DHT22;6913;49.892;7.936;2023-04-06T14:06:12;15.50;37.80
13682;DHT22;6913;49.892;7.936;2023-04-06T14:08:39;15.20;6.90
13682;DHT22;6913;49.892;7.936;2023-04-06T14:11:07;15.10;13.10
13682;DHT22;6913;49.892;7.936;2023-04-06T14:13:37;15.30;25.30
13682;DHT22;6913;49.892;7.936;2023-04-06T14:16:04;15.20;31.10
13682;DHT22;6913;49.892;7.936;2023-04-06T14:18:32;15.10;29.70
13682;DHT22;6913;49.892;7.936;2023-04-06T14:21:00;15.10;17.10
13682;DHT22;6913;49.892;7.936;2023-04-06T14:23:28;14.90;65.80
13682;DHT22;6913;49.892;7.936;2023-04-06T14:26:05;15.10;57.40
13682;DHT22;6913;49.892;7.936;2023-04-06T14:28:33;15.20;5.90
13682;DHT22;6913;49.892;7.936;2023-04-06T14:31:00;15.20;3.20
13682;DHT22;6913;49.892;7.936;2023-04-06T14:33:29;15.10;1.50
13682;DHT22;6913;49.892;7.936;2023-04-06T14:35:56;14.90;5.60
13682;DHT22;6913;49.892;7.936;2023-04-06T14:38:23;14.80;21.60
13682;DHT22;6913;49.892;7.936;2023-04-06T14:40:51;14.70;24.90
13682;DHT22;6913;49.892;7.936;2023-04-06T14:43:18;14.60;52.50
13682;DHT22;6913;49.892;7.936;2023-04-06T14:45:44;14.90;28.70
13682;DHT22;6913;49.892;7.936;2023-04-06T14:48:11;14.20;2.20
13682;DHT22;6913;49.892;7.936;2023-04-06T14:50:38;14.40;5.40
13682;DHT22;6913;49.892;7.936;2023-04-06T14:53:05;14.50;5.80
13682;DHT22;6913;49.892;7.936;2023-04-06T14:55:32;14.50;1.00
13682;DHT22;6913;49.892;7.936;2023-04-06T14:58:01;14.40;1.00
13682;DHT22;6913;49.892;7.936;2023-04-06T15:00:27;14.20;1.00
13682;DHT22;6913;49.892;7.936;2023-04-06T15:02:54;14.20;17.40
13682;DHT22;6913;49.892;7.936;2023-04-06T15:05:21;14.30;25.80
13682;DHT22;6913;49.892;7.936;2023-04-06T15:07:48;14.30;45.00
13682;DHT22;6913;49.892;7.936;2023-04-06T15:10:15;14.10;29.80
13682;DHT22;6913;49.892;7.936;2023-04-06T15:12:42;13.70;26.20
13682;DHT22;6913;49.892;7.936;2023-04-06T15:15:10;13.60;87.00
13682;DHT22;6913;49.892;7.936;2023-04-06T15:17:37;13.40;99.90
13682;DHT22;6913;49.892;7.936;2023-04-06T15:20:05;13.10;99.90
13682;DHT22;6913;49.892;7.936;2023-04-06T15:22:32;13.00;99.90
13682;DHT22;6913;49.892;7.936;2023-04-06T15:24:58;13.00;99.90
13682;DHT22;6913;49.892;7.936;2023-04-06T15:27:25;13.40;99.90
13682;DHT22;6913;49.892;7.936;2023-04-06T15:29:52;13.00;99.90
13682;DHT22;6913;49.892;7.936;2023-04-06T15:32:21;13.20;99.90
13682;DHT22;6913;49.892;7.936;2023-04-06T15:34:48;13.10;99.90
13682;DHT22;6913;49.892;7.936;2023-04-06T15:37:14;13.00;99.90
13682;DHT22;6913;49.892;7.936;2023-04-06T15:39:41;13.00;1.00
13682;DHT22;6913;49.892;7.936;2023-04-06T15:42:08;13.10;1.00
13682;DHT22;6913;49.892;7.936;2023-04-06T15:44:35;13.00;1.00
13682;DHT22;6913;49.892;7.936;2023-04-06T15:47:02;13.00;1.00
13682;DHT22;6913;49.892;7.936;2023-04-06T15:49:30;12.90;1.00
13682;DHT22;6913;49.892;7.936;2023-04-06T15:51:57;13.30;1.00
13682;DHT22;6913;49.892;7.936;2023-04-06T15:54:24;12.90;1.00
13682;DHT22;6913;49.892;7.936;2023-04-06T15:56:51;12.90;1.00